Time;durP1;ratioP1;P1;durP2;ratioP2;P2;SDS_P1;SDS_P2;PMS_P1;PMS_P2;Temp;Humidity;BMP_temperature;BMP_pressure;BME280_temperature;BME280_humidity;BME280_pressure;Samples;Min_cycle;Max_cycle;Signal;HPM_P1;HPM_P2
2021/12/30 00:02:32;;;;;;;31.63;5.45;;;;;;;13.68;100.00;100204.28;8286929;28;20581;-65
2021/12/30 00:06:39;;;;;;;32.05;5.47;;;;;;;13.61;100.00;100216.84;8272513;28;20542;-65
2021/12/30 00:10:40;;;;;;;22.05;3.70;;;;;;;13.73;100.00;100229.94;8278414;28;20046;-65
2021/12/30 00:14:41;;;;;;;30.38;4.20;;;;;;;13.73;100.00;100229.09;8281379;28;20051;-65
2021/12/30 00:18:42;;;;;;;22.08;4.40;;;;;;;13.71;100.00;100231.13;8277277;28;20042;-65
2021/12/30 00:22:43;;;;;;;25.35;3.88;;;;;;;13.74;100.00;100233.50;8282138;28;20046;-65
2021/12/30 00:26:43;;;;;;;21.48;4.18;;;;;;;13.73;100.00;100248.13;8276287;28;20034;-65
2021/12/30 00:30:45;;;;;;;27.17;4.78;;;;;;;13.77;100.00;100252.19;8275757;28;20041;-65
2021/12/30 00:34:45;;;;;;;26.85;4.35;;;;;;;13.73;100.00;100253.56;8275508;28;20049;-65
2021/12/30 00:38:46;;;;;;;20.85;3.58;;;;;;;13.80;100.00;100257.28;8276919;28;20092;-65
2021/12/30 00:42:46;;;;;;;15.13;3.60;;;;;;;13.78;100.00;100260.19;8275772;28;20029;-65
2021/12/30 00:46:47;;;;;;;20.05;3.30;;;;;;;13.88;100.00;100268.19;8274212;28;20046;-65
2021/12/30 00:50:48;;;;;;;23.95;4.10;;;;;;;13.83;100.00;100276.84;8279546;28;20103;-65
2021/12/30 00:54:48;;;;;;;24.80;4.40;;;;;;;13.92;100.00;100288.56;8281731;28;20039;-65
2021/12/30 00:58:49;;;;;;;21.30;3.80;;;;;;;13.96;100.00;100284.50;8274793;28;20037;-65
2021/12/30 01:02:50;;;;;;;17.60;3.75;;;;;;;13.97;100.00;100297.09;8285771;28;20074;-65
2021/12/30 01:06:52;;;;;;;20.45;3.95;;;;;;;13.93;100.00;100273.94;8280067;28;20113;-65
2021/12/30 01:10:53;;;;;;;24.52;3.42;;;;;;;13.89;100.00;100283.47;8260293;28;20438;-65
2021/12/30 01:14:53;;;;;;;20.25;3.72;;;;;;;13.95;100.00;100277.34;8266421;28;20046;-65
2021/12/30 01:18:59;;;;;;;29.15;3.55;;;;;;;13.88;100.00;100276.34;8279979;28;20049;-65
2021/12/30 01:23:00;;;;;;;21.35;3.42;;;;;;;13.88;100.00;100285.31;8290579;28;20054;-65
2021/12/30 01:27:00;;;;;;;26.67;4.55;;;;;;;13.97;100.00;100286.22;8292495;28;20034;-65
2021/12/30 01:31:02;;;;;;;18.10;3.60;;;;;;;14.01;100.00;100293.00;8291710;28;20163;-65
2021/12/30 01:35:05;;;;;;;15.90;2.83;;;;;;;14.01;100.00;100298.44;8290924;28;20033;-65
2021/12/30 01:39:05;;;;;;;20.13;3.95;;;;;;;14.05;100.00;100305.22;8313145;28;20037;-65
2021/12/30 01:43:07;;;;;;;12.95;3.45;;;;;;;14.06;100.00;100317.78;8275003;28;20045;-65
2021/12/30 01:47:08;;;;;;;18.98;2.97;;;;;;;14.13;100.00;100318.84;8280685;28;20057;-65
2021/12/30 01:51:09;;;;;;;16.17;3.00;;;;;;;14.19;100.00;100326.31;8277210;28;20041;-65
2021/12/30 01:55:11;;;;;;;18.70;3.50;;;;;;;14.24;100.00;100315.81;8291545;28;20407;-65
2021/12/30 01:59:12;;;;;;;18.95;3.85;;;;;;;14.18;100.00;100319.16;8290909;28;20030;-65
2021/12/30 02:03:14;;;;;;;20.08;3.58;;;;;;;14.25;100.00;100314.81;8277693;28;20087;-65
2021/12/30 02:07:14;;;;;;;18.55;3.40;;;;;;;14.31;100.00;100321.44;8263418;28;20120;-65
2021/12/30 02:11:17;;;;;;;16.58;4.30;;;;;;;14.37;100.00;100316.19;8258027;28;20034;-65
2021/12/30 02:15:19;;;;;;;19.50;3.90;;;;;;;14.32;100.00;100313.09;8273110;28;20038;-65
2021/12/30 02:19:19;;;;;;;13.55;3.78;;;;;;;14.37;100.00;100305.31;8262704;28;20054;-65
2021/12/30 02:23:31;;;;;;;14.80;3.15;;;;;;;14.32;100.00;100313.09;8290105;28;20097;-65
2021/12/30 02:27:32;;;;;;;20.50;4.97;;;;;;;14.28;100.00;100313.63;8290325;28;20505;-65
2021/12/30 02:31:32;;;;;;;18.38;4.40;;;;;;;14.28;100.00;100313.63;8281310;28;20415;-65
2021/12/30 02:35:33;;;;;;;24.08;3.90;;;;;;;14.14;100.00;100304.22;8274369;28;20091;-65
2021/12/30 02:39:34;;;;;;;19.10;5.30;;;;;;;14.01;100.00;100303.88;8289980;28;20049;-66
2021/12/30 02:43:34;;;;;;;23.13;5.28;;;;;;;13.94;100.00;100297.41;8289192;28;20034;-66
2021/12/30 02:47:35;;;;;;;21.20;5.45;;;;;;;13.89;100.00;100310.66;8290207;28;20053;-66
2021/12/30 02:51:36;;;;;;;26.38;5.15;;;;;;;13.97;100.00;100312.53;8288287;28;20112;-66
2021/12/30 02:55:36;;;;;;;17.67;5.18;;;;;;;14.00;100.00;100318.47;8290165;28;20506;-66
2021/12/30 02:59:37;;;;;;;15.95;4.22;;;;;;;14.06;100.00;100317.78;8289627;28;20418;-66
2021/12/30 03:03:39;;;;;;;15.52;3.85;;;;;;;14.06;100.00;100328.66;8289857;28;20793;-66
2021/12/30 03:07:39;;;;;;;15.45;3.90;;;;;;;14.10;100.00;100324.63;8288253;28;20521;-66
2021/12/30 03:11:40;;;;;;;8.00;3.40;;;;;;;14.12;100.00;100322.56;8288887;28;20457;-66
2021/12/30 03:15:41;;;;;;;9.15;3.05;;;;;;;14.12;100.00;100327.16;8297720;28;20558;-66
2021/12/30 03:19:41;;;;;;;7.68;2.25;;;;;;;14.11;100.00;100329.03;8313095;28;20539;-66
2021/12/30 03:23:42;;;;;;;5.30;1.98;;;;;;;14.15;100.00;100335.81;8285061;28;20699;-66
2021/12/30 03:27:43;;;;;;;8.02;2.20;;;;;;;14.10;100.00;100330.06;8281810;28;20465;-66
2021/12/30 03:31:43;;;;;;;7.28;1.88;;;;;;;14.06;100.00;100323.22;8288929;28;20133;-66
2021/12/30 03:35:44;;;;;;;9.68;1.80;;;;;;;14.05;100.00;100332.41;8292956;28;20040;-66
2021/12/30 03:39:47;;;;;;;4.78;0.98;;;;;;;14.06;100.00;100336.81;8281674;28;20468;-66
2021/12/30 03:43:47;;;;;;;1.92;1.10;;;;;;;14.04;100.00;100336.16;8293907;28;20038;-66
2021/12/30 03:47:50;;;;;;;2.60;1.10;;;;;;;14.08;100.00;100332.06;8324266;28;20045;-66
2021/12/30 03:51:53;;;;;;;5.57;0.75;;;;;;;14.16;100.00;100350.28;8284797;28;20051;-66
2021/12/30 03:55:54;;;;;;;2.67;0.50;;;;;;;14.23;100.00;100335.88;8266039;28;20038;-66
2021/12/30 03:59:54;;;;;;;6.25;0.65;;;;;;;14.35;100.00;100339.97;8271041;28;20069;-65
2021/12/30 04:03:55;;;;;;;2.42;0.30;;;;;;;14.40;100.00;100343.03;8293410;28;20038;-65
2021/12/30 04:07:55;;;;;;;0.40;0.40;;;;;;;14.45;100.00;100343.34;8278001;28;20053;-65
2021/12/30 04:11:56;;;;;;;1.95;0.30;;;;;;;14.46;100.00;100342.38;8267229;28;20050;-65
2021/12/30 04:15:57;;;;;;;1.10;0.20;;;;;;;14.55;100.00;100348.66;8278589;28;20037;-65
2021/12/30 04:19:57;;;;;;;0.20;0.20;;;;;;;14.59;100.00;100342.69;8292332;28;20026;-65
2021/12/30 04:23:58;;;;;;;1.55;0.30;;;;;;;14.66;100.00;100353.72;8314554;28;20492;-65
2021/12/30 04:27:59;;;;;;;0.60;0.20;;;;;;;14.77;100.00;100364.28;8324954;28;20091;-65
2021/12/30 04:31:59;;;;;;;1.92;0.30;;;;;;;14.94;100.00;100347.75;8325157;28;20571;-65
2021/12/30 04:36:00;;;;;;;3.08;0.40;;;;;;;14.99;100.00;100345.38;8303783;28;20038;-65
2021/12/30 04:40:02;;;;;;;0.75;0.32;;;;;;;15.00;100.00;100349.78;8281084;28;20551;-65
2021/12/30 04:44:03;;;;;;;0.68;0.50;;;;;;;15.06;100.00;100357.25;8291878;28;20117;-65
2021/12/30 04:48:03;;;;;;;3.33;0.80;;;;;;;15.01;100.00;100354.19;8279293;28;20039;-65
2021/12/30 04:52:04;;;;;;;0.88;0.40;;;;;;;14.94;100.00;100355.91;8288866;28;20120;-65
2021/12/30 04:56:04;;;;;;;1.08;0.50;;;;;;;14.97;100.00;100358.28;8324953;28;20029;-65
2021/12/30 05:00:09;;;;;;;1.55;0.32;;;;;;;14.98;100.00;100362.72;8324021;28;20061;-65
2021/12/30 05:04:09;;;;;;;;;;;;;;;14.99;100.00;100360.84;8325064;28;20520;-65
2021/12/30 05:08:11;;;;;;;0.70;0.40;;;;;;;14.99;100.00;100371.75;8314910;28;19918;-65
2021/12/30 05:12:12;;;;;;;2.72;0.60;;;;;;;15.08;100.00;100382.47;8287411;28;20045;-65
2021/12/30 05:16:12;;;;;;;0.77;0.50;;;;;;;15.10;100.00;100379.56;8290288;28;20113;-65
2021/12/30 05:20:13;;;;;;;0.45;0.30;;;;;;;15.13;100.00;100366.44;8290972;28;20042;-65
2021/12/30 05:24:15;;;;;;;1.40;0.40;;;;;;;15.19;100.00;100379.34;8291439;28;20040;-65
2021/12/30 05:28:15;;;;;;;0.45;0.20;;;;;;;15.19;100.00;100382.06;8290715;28;20038;-65
2021/12/30 05:32:16;;;;;;;0.28;0.17;;;;;;;15.29;100.00;100390.06;8290363;28;20045;-65
2021/12/30 05:36:17;;;;;;;1.30;0.20;;;;;;;15.35;100.00;100395.69;8282047;28;20038;-65
2021/12/30 05:40:19;;;;;;;0.88;0.20;;;;;;;15.42;100.00;100388.53;8289866;28;20113;-65
2021/12/30 05:44:19;;;;;;;0.20;0.20;;;;;;;15.51;100.00;100401.13;8270967;28;20053;-65
2021/12/30 05:48:20;;;;;;;0.32;0.20;;;;;;;15.60;100.00;100393.75;8271004;28;20038;-65
2021/12/30 05:52:20;;;;;;;0.40;0.10;;;;;;;15.56;100.00;100401.41;8280983;28;20048;-65
2021/12/30 05:56:21;;;;;;;4.25;0.20;;;;;;;15.58;100.00;100403.97;8275062;28;20034;-65
2021/12/30 06:00:25;;;;;;;0.22;0.20;;;;;;;15.61;100.00;100409.94;8280270;28;20387;-65
2021/12/30 06:04:25;;;;;;;1.60;0.50;;;;;;;15.67;100.00;100416.53;8253514;28;20108;-65
2021/12/30 06:08:25;;;;;;;1.77;0.30;;;;;;;15.77;100.00;100419.06;8253971;28;20034;-65
2021/12/30 06:12:26;;;;;;;0.32;0.30;;;;;;;15.85;100.00;100419.06;8253692;28;20463;-65
2021/12/30 06:16:26;;;;;;;0.45;0.40;;;;;;;15.79;100.00;100420.59;8287569;28;20042;-65
2021/12/30 06:20:28;;;;;;;1.20;0.40;;;;;;;15.84;100.00;100425.50;8267889;28;20141;-65
2021/12/30 06:24:28;;;;;;;3.53;0.50;;;;;;;15.91;100.00;100431.94;8285743;28;20457;-65
2021/12/30 06:28:29;;;;;;;0.65;0.60;;;;;;;15.93;100.00;100427.19;8285765;28;20042;-65
2021/12/30 06:32:29;;;;;;;1.17;0.55;;;;;;;15.92;100.00;100437.22;8312065;28;20072;-65
2021/12/30 06:36:29;;;;;;;0.77;0.70;;;;;;;16.07;100.00;100443.66;8305546;28;20274;-65
2021/12/30 06:40:30;;;;;;;1.67;0.60;;;;;;;15.89;100.00;100442.22;8279205;28;20030;-65
2021/12/30 06:44:31;;;;;;;0.95;0.85;;;;;;;15.93;100.00;100451.72;8278024;28;20034;-65
2021/12/30 06:48:32;;;;;;;0.80;0.80;;;;;;;15.95;100.00;100453.25;8278547;28;20038;-65
2021/12/30 06:52:32;;;;;;;0.68;0.68;;;;;;;16.05;100.00;100450.31;8285138;28;20074;-65
2021/12/30 06:56:33;;;;;;;2.08;0.70;;;;;;;16.12;100.00;100460.34;8284835;28;20084;-65
2021/12/30 07:00:34;;;;;;;1.10;0.88;;;;;;;16.01;100.00;100455.25;8284732;28;20477;-65
2021/12/30 07:04:34;;;;;;;1.30;1.20;;;;;;;15.98;100.00;100457.50;8283791;28;20038;-66
2021/12/30 07:08:35;;;;;;;2.50;1.50;;;;;;;15.89;100.00;100462.13;8287416;28;20053;-66
2021/12/30 07:12:37;;;;;;;2.15;1.48;;;;;;;15.82;100.00;100463.03;8290762;28;20044;-66
2021/12/30 07:16:37;;;;;;;1.73;1.63;;;;;;;15.83;100.00;100467.44;8288379;28;20037;-66
2021/12/30 07:20:37;;;;;;;1.70;1.60;;;;;;;15.80;100.00;100465.94;8274202;28;20124;-66
2021/12/30 07:24:38;;;;;;;1.73;1.40;;;;;;;15.77;100.00;100464.38;8292811;28;20125;-66
2021/12/30 07:28:38;;;;;;;1.30;1.20;;;;;;;15.81;100.00;100472.22;8287140;28;20219;-66
2021/12/30 07:32:39;;;;;;;1.33;1.10;;;;;;;15.85;100.00;100473.59;8275955;28;20093;-66
2021/12/30 07:36:39;;;;;;;1.13;0.93;;;;;;;15.85;100.00;100484.50;8280147;28;20041;-66
2021/12/30 07:40:40;;;;;;;0.82;0.82;;;;;;;15.96;100.00;100492.28;8286841;28;20127;-66
2021/12/30 07:44:40;;;;;;;1.00;0.90;;;;;;;15.95;100.00;100501.50;8278591;28;20193;-66
2021/12/30 07:48:41;;;;;;;0.70;0.63;;;;;;;15.94;100.00;100510.69;8286725;28;20369;-66
2021/12/30 07:52:41;;;;;;;1.95;0.70;;;;;;;16.00;100.00;100515.44;8286294;28;20046;-66
2021/12/30 07:56:42;;;;;;;2.28;0.68;;;;;;;16.02;100.00;100524.31;8285340;28;20557;-66
2021/12/30 08:00:42;;;;;;;0.50;0.50;;;;;;;16.04;100.00;100525.81;8286511;28;20547;-66
2021/12/30 08:04:43;;;;;;;0.50;0.50;;;;;;;16.12;100.00;100530.41;8292335;28;20034;-66
2021/12/30 08:08:44;;;;;;;1.15;0.47;;;;;;;16.11;100.00;100539.63;8286437;28;20502;-66
2021/12/30 08:12:47;;;;;;;0.73;0.50;;;;;;;16.11;100.00;100550.53;8287310;28;20221;-66
2021/12/30 08:16:47;;;;;;;2.25;0.40;;;;;;;16.15;100.00;100551.88;8285559;28;20120;-66
2021/12/30 08:20:48;;;;;;;0.40;0.40;;;;;;;15.99;100.00;100560.09;8279495;28;20111;-66
2021/12/30 08:24:48;;;;;;;1.17;0.57;;;;;;;15.98;100.00;100561.97;8281025;28;20042;-66
2021/12/30 08:28:49;;;;;;;0.50;0.50;;;;;;;15.95;100.00;100566.94;8284769;28;20490;-66
2021/12/30 08:32:50;;;;;;;1.40;0.47;;;;;;;15.92;100.00;100567.28;8283702;28;20053;-66
2021/12/30 08:36:51;;;;;;;0.60;0.60;;;;;;;15.94;100.00;100578.84;8279509;28;20038;-66
2021/12/30 08:40:51;;;;;;;1.10;0.80;;;;;;;16.01;100.00;100571.69;8273377;28;20042;-66
2021/12/30 08:44:54;;;;;;;3.42;0.70;;;;;;;16.00;100.00;100567.25;8275960;28;20250;-66
2021/12/30 08:48:54;;;;;;;1.45;0.70;;;;;;;16.05;100.00;100584.81;8270958;28;20049;-66
2021/12/30 08:52:55;;;;;;;1.20;0.50;;;;;;;16.03;100.00;100581.41;8261846;28;20401;-66
2021/12/30 08:56:55;;;;;;;0.68;0.68;;;;;;;16.09;100.00;100583.44;8269179;28;20053;-66
2021/12/30 09:00:56;;;;;;;0.68;0.52;;;;;;;16.05;100.00;100589.41;8272633;28;20042;-66
2021/12/30 09:04:56;;;;;;;0.77;0.70;;;;;;;16.11;100.00;100599.63;8279120;28;20045;-66
2021/12/30 09:08:57;;;;;;;2.25;0.50;;;;;;;16.11;100.00;100596.91;8278970;28;20046;-66
2021/12/30 09:12:57;;;;;;;1.27;0.50;;;;;;;16.13;100.00;100600.31;8278917;28;20041;-66
2021/12/30 09:16:58;;;;;;;0.30;0.30;;;;;;;16.27;100.00;100603.16;8279231;28;20029;-66
2021/12/30 09:20:58;;;;;;;0.50;0.40;;;;;;;16.42;100.00;100609.59;8279585;28;20216;-66
2021/12/30 09:24:59;;;;;;;0.65;0.32;;;;;;;16.45;100.00;100597.50;8279845;28;20044;-66
2021/12/30 09:28:59;;;;;;;0.30;0.22;;;;;;;16.38;100.00;100612.84;8279189;28;20038;-66
2021/12/30 09:33:02;;;;;;;1.38;0.52;;;;;;;16.34;100.00;100619.66;8275265;28;20263;-66
2021/12/30 09:37:08;;;;;;;0.57;0.40;;;;;;;16.42;100.00;100614.19;8273849;28;20063;-66
2021/12/30 09:41:09;;;;;;;0.82;0.20;;;;;;;16.67;100.00;100613.09;8271218;28;20100;-66
2021/12/30 09:45:11;;;;;;;0.22;0.22;;;;;;;16.76;100.00;100622.97;8276541;28;20520;-66
2021/12/30 09:49:17;;;;;;;1.55;0.30;;;;;;;17.35;100.00;100630.47;8260645;28;20041;-66
2021/12/30 09:53:19;;;;;;;0.98;0.20;;;;;;;17.34;100.00;100634.25;8271714;28;20078;-66
2021/12/30 09:57:20;;;;;;;0.60;0.20;;;;;;;17.24;100.00;100647.28;8268183;28;20072;-66
2021/12/30 10:01:20;;;;;;;1.08;0.68;;;;;;;16.91;100.00;100648.50;8270277;28;20050;-66
2021/12/30 10:05:25;;;;;;;0.50;0.20;;;;;;;16.72;100.00;100654.38;8272500;28;20084;-66
2021/12/30 10:10:01;;;;;;;0.55;0.20;;;;;;;16.61;100.00;100657.50;8276643;28;20527;-66
2021/12/30 10:14:01;;;;;;;1.88;0.30;;;;;;;16.49;100.00;100650.69;8273144;28;20553;-66
2021/12/30 10:18:02;;;;;;;0.40;0.20;;;;;;;16.52;100.00;100658.53;8278993;28;20030;-66
2021/12/30 10:22:12;;;;;;;0.30;0.28;;;;;;;16.51;100.00;100656.84;8276223;28;20033;-66
2021/12/30 10:26:15;;;;;;;0.28;0.20;;;;;;;16.49;100.00;100664.34;8279095;28;20436;-66
2021/12/30 10:30:29;;;;;;;1.02;0.20;;;;;;;16.47;100.00;100660.97;8281956;28;20046;-66
2021/12/30 10:34:29;;;;;;;0.60;0.40;;;;;;;16.65;100.00;100664.31;8259056;28;20379;-66
2021/12/30 10:38:30;;;;;;;1.50;0.30;;;;;;;16.70;100.00;100659.16;8267881;28;20520;-66
2021/12/30 10:42:33;;;;;;;3.50;1.00;;;;;;;16.88;100.00;100657.03;8273981;28;20041;-66
2021/12/30 10:46:34;;;;;;;0.65;0.55;;;;;;;16.93;100.00;100668.31;8277903;28;20038;-67
2021/12/30 10:50:34;;;;;;;2.28;0.63;;;;;;;17.02;100.00;100664.50;8276596;28;20048;-66
2021/12/30 10:54:39;;;;;;;2.67;0.90;;;;;;;17.04;100.00;100671.47;8257104;28;20062;-66
2021/12/30 10:58:39;;;;;;;3.13;0.65;;;;;;;16.97;100.00;100675.09;8264063;28;20042;-66
2021/12/30 11:02:40;;;;;;;6.07;1.00;;;;;;;16.96;100.00;100678.88;8274195;28;20151;-66
2021/12/30 11:06:43;;;;;;;4.05;1.00;;;;;;;16.96;100.00;100678.88;8270172;28;20044;-66
2021/12/30 11:10:43;;;;;;;3.42;1.08;;;;;;;16.96;100.00;100674.25;8276122;28;20088;-66
2021/12/30 11:14:44;;;;;;;1.75;0.90;;;;;;;17.08;100.00;100671.97;8269663;28;20140;-66
2021/12/30 11:18:44;;;;;;;1.90;0.82;;;;;;;17.17;100.00;100665.44;8275300;28;20037;-66
2021/12/30 11:22:47;;;;;;;2.38;1.02;;;;;;;17.22;100.00;100663.88;8277743;28;20038;-66
2021/12/30 11:26:48;;;;;;;2.83;1.02;;;;;;;17.14;100.00;100660.34;8275003;28;20050;-66
2021/12/30 11:30:49;;;;;;;3.63;0.77;;;;;;;17.24;98.71;100655.50;8254824;28;20046;-66
2021/12/30 11:34:50;;;;;;;5.07;1.00;;;;;;;17.30;98.46;100665.72;8255426;28;20045;-66
2021/12/30 11:38:51;;;;;;;2.10;0.80;;;;;;;17.51;96.99;100671.41;8272281;28;20137;-66
2021/12/30 11:42:57;;;;;;;3.25;0.98;;;;;;;17.39;96.19;100654.53;8268587;28;20042;-66
2021/12/30 11:46:57;;;;;;;1.70;0.90;;;;;;;17.51;96.38;100647.63;8252637;28;20682;-66
2021/12/30 11:51:08;;;;;;;4.13;1.75;;;;;;;17.60;96.57;100651.19;8257604;28;20092;-66
2021/12/30 11:55:49;;;;;;;1.50;0.70;;;;;;;18.83;90.34;100641.41;8259856;28;20041;-66
2021/12/30 11:59:50;;;;;;;2.63;0.80;;;;;;;18.25;90.71;100638.63;8272565;28;20045;-66
2021/12/30 12:08:08;;;;;;;2.28;0.60;;;;;;;18.33;90.01;100627.56;8327559;27;20395;-65
2021/12/30 12:12:11;;;;;;;2.28;0.60;;;;;;;17.85;93.01;100629.94;8324816;28;20049;-65
2021/12/30 12:16:14;;;;;;;4.55;1.00;;;;;;;17.42;94.31;100631.47;8314394;28;20050;-65
2021/12/30 12:20:30;;;;;;;3.60;0.80;;;;;;;17.40;93.96;100611.66;8333211;28;20037;-65
2021/12/30 12:24:35;;;;;;;2.88;1.10;;;;;;;17.38;94.84;100613.69;8324383;28;20053;-65
2021/12/30 12:28:36;;;;;;;5.50;1.00;;;;;;;17.35;93.94;100611.34;8324507;28;20102;-65
2021/12/30 12:32:39;;;;;;;3.72;0.85;;;;;;;17.39;92.92;100612.69;8326462;28;20750;-65
2021/12/30 12:36:40;;;;;;;1.63;0.85;;;;;;;17.41;93.03;100618.81;8328051;28;20139;-65
2021/12/30 12:40:43;;;;;;;2.20;0.82;;;;;;;17.54;92.76;100617.19;8307206;28;20041;-65
2021/12/30 12:45:21;;;;;;;3.15;0.80;;;;;;;17.62;91.20;100621.75;8337198;28;20048;-65
2021/12/30 12:49:43;;;;;;;2.15;0.60;;;;;;;17.51;91.46;100624.94;8336957;28;20467;-65
2021/12/30 12:53:47;;;;;;;6.30;0.82;;;;;;;17.40;93.02;100619.84;8332375;28;20041;-65
2021/12/30 12:57:47;;;;;;;2.75;0.68;;;;;;;17.32;92.31;100625.38;8337136;28;20568;-65
2021/12/30 13:01:48;;;;;;;1.13;0.43;;;;;;;17.17;94.23;100632.66;8333187;28;20452;-65
2021/12/30 13:06:00;;;;;;;1.75;0.60;;;;;;;17.14;94.80;100635.75;8339322;28;20071;-65
2021/12/30 13:10:00;;;;;;;1.13;0.80;;;;;;;16.99;96.22;100646.56;8335294;28;20037;-65
2021/12/30 13:14:14;;;;;;;2.08;0.50;;;;;;;16.97;97.24;100651.38;8325378;28;20043;-65
2021/12/30 13:18:15;;;;;;;2.50;0.80;;;;;;;16.96;97.13;100657.03;8301282;28;20041;-65
2021/12/30 13:22:18;;;;;;;1.42;0.35;;;;;;;16.99;96.20;100640.28;8312227;28;20132;-65
2021/12/30 13:26:19;;;;;;;1.58;0.52;;;;;;;17.00;96.61;100644.69;8308780;28;20125;-65
2021/12/30 13:30:20;;;;;;;2.08;0.30;;;;;;;17.01;96.61;100643.66;8300999;28;20545;-65
2021/12/30 13:34:20;;;;;;;1.48;0.50;;;;;;;16.97;96.51;100643.19;8302045;28;20033;-66
2021/12/30 13:38:25;;;;;;;3.05;0.65;;;;;;;16.94;96.96;100638.06;8312469;28;20130;-66
2021/12/30 13:42:28;;;;;;;1.17;0.55;;;;;;;17.00;95.90;100644.69;8305156;28;20037;-66
2021/12/30 13:46:28;;;;;;;2.75;0.68;;;;;;;16.90;96.08;100655.00;8311807;28;20049;-66
2021/12/30 13:50:29;;;;;;;5.43;0.80;;;;;;;16.79;97.29;100666.28;8300352;28;20049;-66
2021/12/30 13:54:30;;;;;;;0.95;0.52;;;;;;;16.71;98.11;100663.63;8283357;28;20371;-66
2021/12/30 13:58:34;;;;;;;0.93;0.57;;;;;;;16.72;97.39;100673.50;8302606;28;20038;-66
2021/12/30 14:02:35;;;;;;;2.55;1.15;;;;;;;16.76;97.49;100672.97;8300550;28;20081;-66
2021/12/30 14:06:39;;;;;;;2.03;0.90;;;;;;;16.70;98.75;100678.28;8302910;28;20049;-66
2021/12/30 14:10:45;;;;;;;3.47;1.00;;;;;;;16.70;97.74;100689.19;8303879;28;20038;-66
2021/12/30 14:14:46;;;;;;;3.70;0.80;;;;;;;16.66;98.04;100694.19;8293319;28;20472;-66
2021/12/30 14:18:51;;;;;;;3.20;0.90;;;;;;;16.69;97.64;100698.44;8307284;28;20408;-66
2021/12/30 14:22:52;;;;;;;3.58;1.20;;;;;;;16.61;98.56;100706.63;8296388;28;20081;-66
2021/12/30 14:26:55;;;;;;;2.47;0.80;;;;;;;16.61;98.71;100714.81;8311065;28;20041;-66
2021/12/30 14:30:56;;;;;;;2.90;1.00;;;;;;;16.58;98.80;100717.91;8313859;28;20665;-66
2021/12/30 14:35:05;;;;;;;4.45;0.93;;;;;;;16.58;98.60;100716.03;8382725;28;20063;-66
2021/12/30 14:39:29;;;;;;;4.65;0.70;;;;;;;16.59;98.90;100715.00;8406509;28;20032;-66
2021/12/30 14:43:29;;;;;;;2.53;1.00;;;;;;;16.52;99.42;100724.03;8380855;28;20044;-66
2021/12/30 14:47:34;;;;;;;2.10;1.17;;;;;;;16.50;99.55;100731.56;8391558;28;20040;-65
2021/12/30 14:51:38;;;;;;;4.35;1.00;;;;;;;16.47;99.24;100731.94;8387991;28;20036;-65
2021/12/30 14:55:38;;;;;;;2.75;0.80;;;;;;;16.43;99.84;100735.97;8402923;28;20036;-65
2021/12/30 14:59:40;;;;;;;2.78;1.20;;;;;;;16.37;99.70;100736.66;8382513;28;20059;-65
2021/12/30 15:03:41;;;;;;;5.55;1.13;;;;;;;16.27;100.00;100733.25;8390865;28;20040;-65
2021/12/30 15:07:42;;;;;;;3.45;1.08;;;;;;;16.25;99.60;100738.88;8391155;28;20115;-66
2021/12/30 15:11:44;;;;;;;2.50;0.75;;;;;;;16.17;100.00;100748.97;8395405;28;20499;-66
2021/12/30 15:15:45;;;;;;;5.68;1.70;;;;;;;16.04;100.00;100745.91;8400576;28;20136;-66
2021/12/30 15:19:46;;;;;;;6.70;1.50;;;;;;;15.97;100.00;100751.16;8409005;28;20035;-66
2021/12/30 15:23:47;;;;;;;5.03;1.63;;;;;;;15.90;100.00;100757.47;8405148;28;20093;-66
2021/12/30 15:27:48;;;;;;;4.95;1.73;;;;;;;15.87;100.00;100757.81;8392368;28;20131;-66
2021/12/30 15:31:50;;;;;;;3.42;1.20;;;;;;;15.91;100.00;100759.16;8398595;28;20032;-66
2021/12/30 15:35:52;;;;;;;6.63;1.75;;;;;;;15.82;100.00;100762.94;8401849;28;20523;-66
2021/12/30 15:39:53;;;;;;;4.90;1.45;;;;;;;15.93;100.00;100763.44;8404381;28;20058;-66
2021/12/30 15:43:53;;;;;;;3.70;0.73;;;;;;;15.94;100.00;100772.47;8389947;28;20139;-66
2021/12/30 15:47:55;;;;;;;3.08;1.13;;;;;;;15.99;100.00;100772.81;8388506;28;20049;-66
2021/12/30 15:51:56;;;;;;;4.60;1.05;;;;;;;16.00;100.00;100782.69;8393467;28;20566;-66
2021/12/30 15:55:57;;;;;;;6.70;1.10;;;;;;;16.04;100.00;100774.00;8405976;28;20067;-66
2021/12/30 15:59:57;;;;;;;4.63;1.00;;;;;;;16.12;100.00;100787.66;8354934;28;20033;-66
2021/12/30 16:03:58;;;;;;;4.22;1.30;;;;;;;16.17;100.00;100796.22;8369976;28;20070;-66
2021/12/30 16:07:59;;;;;;;3.05;0.98;;;;;;;16.06;100.00;100804.72;8371466;28;20047;-66
2021/12/30 16:12:00;;;;;;;2.17;0.70;;;;;;;15.94;100.00;100799.72;8390680;28;20242;-66
2021/12/30 16:16:05;;;;;;;5.88;1.60;;;;;;;15.88;100.00;100811.31;8370288;28;20037;-66
2021/12/30 16:20:07;;;;;;;;;;;;;;;15.87;100.00;100809.63;8403889;28;20036;-66
2021/12/30 16:24:08;;;;;;;3.92;1.05;;;;;;;15.83;100.00;100808.25;8394855;28;19923;-66
2021/12/30 16:28:09;;;;;;;2.67;1.05;;;;;;;15.81;100.00;100813.00;8400038;28;20071;-66
2021/12/30 16:32:10;;;;;;;3.75;1.77;;;;;;;15.74;100.00;100819.13;8398021;28;20028;-66
2021/12/30 16:36:10;;;;;;;3.83;1.50;;;;;;;15.72;100.00;100839.41;8401067;28;20036;-66
2021/12/30 16:40:11;;;;;;;4.63;1.30;;;;;;;15.61;100.00;100837.84;8384104;28;20051;-66
2021/12/30 16:44:12;;;;;;;6.43;1.42;;;;;;;15.57;100.00;100847.38;8406152;28;20040;-66
2021/12/30 16:48:14;;;;;;;4.30;1.30;;;;;;;15.53;100.00;100850.59;8375678;28;20519;-66
2021/12/30 16:52:14;;;;;;;6.25;1.98;;;;;;;15.50;100.00;100854.47;8405161;28;20071;-66
2021/12/30 16:56:16;;;;;;;6.03;2.00;;;;;;;15.42;100.00;100853.59;8404695;28;20352;-66
2021/12/30 17:00:19;;;;;;;9.18;3.13;;;;;;;15.36;100.00;100852.34;8373318;28;20044;-66
2021/12/30 17:04:20;;;;;;;3.40;1.83;;;;;;;15.40;100.00;100851.03;8394689;28;20571;-66
2021/12/30 17:08:26;;;;;;;8.15;1.55;;;;;;;15.45;100.00;100847.81;8403700;28;20470;-66
2021/12/30 17:12:26;;;;;;;5.68;1.92;;;;;;;15.50;100.00;100851.75;8402821;28;20042;-66
2021/12/30 17:16:29;;;;;;;7.18;1.65;;;;;;;15.53;100.00;100854.13;8399821;28;20039;-66
2021/12/30 17:20:32;;;;;;;5.93;1.77;;;;;;;15.51;100.00;100860.78;8401813;28;20039;-66
2021/12/30 17:24:33;;;;;;;5.55;1.40;;;;;;;15.58;100.00;100865.41;8405163;28;20554;-66
2021/12/30 17:28:34;;;;;;;6.70;1.85;;;;;;;15.65;100.00;100861.00;8403734;28;20348;-66
2021/12/30 17:32:35;;;;;;;5.60;1.50;;;;;;;15.68;100.00;100871.59;8402212;28;20048;-66
2021/12/30 17:36:37;;;;;;;5.40;1.60;;;;;;;15.60;100.00;100865.25;8411723;28;20036;-66
2021/12/30 17:40:38;;;;;;;7.07;1.80;;;;;;;15.67;100.00;100869.03;8383071;28;20049;-66
2021/12/30 17:44:39;;;;;;;4.65;1.42;;;;;;;15.68;100.00;100855.22;8390912;28;20044;-66
2021/12/30 17:48:39;;;;;;;5.38;1.77;;;;;;;15.61;100.00;100865.09;8390644;28;20100;-66
2021/12/30 17:52:40;;;;;;;10.90;2.17;;;;;;;15.63;100.00;100867.66;8407000;28;20045;-66
2021/12/30 17:56:41;;;;;;;7.95;2.20;;;;;;;15.72;100.00;100869.41;8402630;28;20063;-66
2021/12/30 18:00:42;;;;;;;7.00;1.52;;;;;;;15.73;100.00;100878.44;8386619;28;20506;-66
2021/12/30 18:04:43;;;;;;;3.83;1.63;;;;;;;15.70;100.00;100869.56;8410641;28;20085;-66
2021/12/30 18:08:43;;;;;;;10.15;1.58;;;;;;;15.72;100.00;100872.13;8379514;28;20039;-66
2021/12/30 18:12:44;;;;;;;3.70;1.50;;;;;;;15.73;100.00;100874.69;8388795;28;20048;-66
2021/12/30 18:16:44;;;;;;;4.25;1.30;;;;;;;15.84;100.00;100876.25;8406481;28;20140;-66
2021/12/30 18:20:46;;;;;;;6.65;1.88;;;;;;;15.84;100.00;100861.75;8403152;28;20040;-66
2021/12/30 18:24:49;;;;;;;6.72;1.98;;;;;;;15.83;100.00;100871.81;8396057;28;20036;-66
2021/12/30 18:28:51;;;;;;;4.03;1.20;;;;;;;15.93;100.00;100868.94;8397507;28;20548;-66
2021/12/30 18:32:52;;;;;;;5.22;1.58;;;;;;;16.02;100.00;100874.25;8399986;28;20039;-66
2021/12/30 18:36:53;;;;;;;2.67;1.35;;;;;;;15.93;100.00;100858.91;8414031;28;20134;-66